パゴパゴ の空港の天気 - METARとTAF

パゴパゴ国際空港 ( NSTU / PPG ) - アメリカ領サモア パゴパゴ
飛行場実況気象(Metar)
観測時間08/10 19:50 SST (08/11 06:50 UTC)
風向・風速東南東 8m/s
視程10km以上
天気現象
少しの雲 雲底高度 700m
全天の4割程度の雲 雲底高度 1220m
気温26.9℃
湿度78%
気圧1014.2hPa
METARNSTU 110650Z 12016KT 10SM FEW023 SCT040 27/23 A2995 RMK SLP142 T02690228
過去の天気等 Google飛行場航空写真 Wunderground天気予報

過去48時間のMETAR

飛行場予報(TAF)
発表時間: 8/10 18:20 SST (8/11 05:20 UTC)
予報対象時間: 10日19時 SST ~ 11日19時 SST
風向・風速南東 8m/s
視程10km以上
天気現象周辺でしゅう雨
少しの雲 雲底高度 760m
全天の4割程度の雲 雲底高度 1220m
全天の4割程度の雲 雲底高度 3050m
11日4時 SST から
風向・風速東南東 8m/s
視程10km以上
天気現象弱いしゅう雨
全天の8割程度の雲 雲底高度 610m
全天の8割程度の雲 雲底高度 1220m
全天を覆う雲 雲底高度 3050m
NSTU 110520Z 1106/1206 13016KT P6SM VCSH FEW025 SCT040 SCT100
FM111500 11016KT 6SM -SHRA BKN020 BKN040 OVC100